Arethusa — 9HJR9 — position and weather

sailwx.info

Track history (hours):
 
Tides and Currents Weather Stations Pressure Air Temp Water Temp Dewpoint Dewpoint Depression Visibility Wind Speed Wind Dir Waves Ship Positions

Arethusa

Last reported at 2017-Mar-22 19:33 UTC. Time now 2017-Mar-24 06:14 UTC.
Position N 36°14' E 014°11'.

Length 60 m; draft 3 m.

Type: Passenger vessel. MMSI: 249069000.

Date/timePositionNaut miles runAvg speedWind from/ knotsBaromVisibWave heightAir tempDewpointWater temp
2017-Mar-22 19:33N 36°14' E 014°11'1212.3
2017-Mar-22 18:33N 36°06' E 014°22'1111.3
2017-Mar-22 17:33N 35°59' E 014°32'  
2017-Mar-20 08:33N 35°55' E 014°32'7 7.1
2017-Mar-20 07:33N 35°59' E 014°25'0 0.0
2017-Mar-20 06:33N 35°59' E 014°25'0 0.0
2017-Mar-20 05:33N 35°59' E 014°25'0 0.0
2017-Mar-20 04:33N 35°59' E 014°25'0 0.0
2017-Mar-20 03:33N 35°59' E 014°25'0 0.0
2017-Mar-20 02:33N 35°59' E 014°25'0 0.0
2017-Mar-20 01:33N 35°59' E 014°25'0 0.0
2017-Mar-20 00:33N 35°59' E 014°25'0 0.0
2017-Mar-19 23:33N 35°59' E 014°25'0 0.0
2017-Mar-19 22:33N 35°59' E 014°25'0 0.0
2017-Mar-19 21:32N 35°59' E 014°25'0 0.0
2017-Mar-19 20:33N 35°59' E 014°25'0 0.0
2017-Mar-19 19:33N 35°59' E 014°25'9 9.5
2017-Mar-19 18:33N 36°03' E 014°36'1410.4
2017-Mar-19 17:10N 36°12' E 014°50'710.6
2017-Mar-19 16:33N 36°18' E 014°54'1010.3
2017-Mar-19 15:33N 36°27' E 014°60'1010.4
2017-Mar-19 14:33N 36°35' E 015°08'8110.8
2017-Mar-19 07:04N 37°43' E 016°02'150 9.1
2017-Mar-18 14:32N 39°33' E 018°13'38810.2
2017-Mar-17 00:33N 44°43' E 012°58'1111.2
2017-Mar-16 23:33N 44°55' E 012°58'1110.7
2017-Mar-16 22:33N 45°05' E 012°54'1110.9
2017-Mar-16 21:33N 45°13' E 012°45'1110.9
2017-Mar-16 20:34N 45°21' E 012°33'9 9.0
2017-Mar-16 19:33N 45°25' E 012°22'2 2.2
2017-Mar-16 18:31N 45°26' E 012°19'0 0.0
2017-Mar-16 17:31N 45°26' E 012°19'0 0.0
2017-Mar-16 16:31N 45°26' E 012°19'0 0.0
2017-Mar-16 15:31N 45°26' E 012°19'0 0.0
2017-Mar-16 14:31N 45°26' E 012°19'0 0.0
2017-Mar-16 13:31N 45°26' E 012°19'0 0.0
2017-Mar-16 12:31N 45°26' E 012°19'0 0.0
2017-Mar-16 11:31N 45°26' E 012°19'0 0.0
2017-Mar-16 10:31N 45°26' E 012°19'0 0.0
2017-Mar-16 09:31N 45°26' E 012°19'0 0.0
2017-Mar-16 08:33N 45°26' E 012°19'0 0.0
2017-Mar-16 07:33N 45°26' E 012°19'0 0.0
2017-Mar-16 06:33N 45°26' E 012°19'0 0.0
2017-Mar-16 05:33N 45°26' E 012°19'0 0.0
2017-Mar-16 04:33N 45°26' E 012°19'0 0.0
2017-Mar-16 03:33N 45°26' E 012°19'0 0.0
2017-Mar-16 02:33N 45°26' E 012°19'0 0.0
2017-Mar-16 01:33N 45°26' E 012°19'0 0.0
2017-Mar-16 00:33N 45°26' E 012°19'0 0.0
2017-Mar-15 23:33N 45°26' E 012°19'3 2.9
2017-Mar-15 22:34N 45°26' E 012°23'7 7.5
2017-Mar-15 21:33N 45°25' E 012°34'10 9.5
2017-Mar-15 20:32N 45°27' E 012°47'10 9.7
2017-Mar-15 19:33N 45°30' E 013°00'10 9.7
2017-Mar-15 18:33N 45°33' E 013°13'10 9.6
2017-Mar-15 17:33N 45°36' E 013°26'10 9.6
2017-Mar-15 16:33N 45°39' E 013°39'5 3.7
2017-Mar-15 15:18N 45°39' E 013°46'0 0.0
2017-Mar-15 14:33N 45°39' E 013°46'0 0.0
2017-Mar-15 13:30N 45°39' E 013°46'0 0.0
2017-Mar-15 12:21N 45°39' E 013°46'0 0.0
2017-Mar-15 11:33N 45°39' E 013°46'0 0.0
2017-Mar-15 10:33N 45°39' E 013°46'0 0.0
2017-Mar-15 09:27N 45°39' E 013°46'0 0.0
2017-Mar-15 08:33N 45°39' E 013°46'0 0.0
2017-Mar-15 07:33N 45°39' E 013°46'0 0.0
2017-Mar-15 06:33N 45°39' E 013°46'0 0.0
2017-Mar-15 05:33N 45°39' E 013°46'0 0.0
2017-Mar-15 04:33N 45°39' E 013°46'0 0.0
2017-Mar-15 03:30N 45°39' E 013°46'0 0.0
2017-Mar-15 02:33N 45°39' E 013°46'0 0.0
2017-Mar-15 01:33N 45°39' E 013°46'0 0.0
2017-Mar-15 00:33N 45°39' E 013°46'0 0.0
2017-Mar-14 23:33N 45°39' E 013°46'0 0.0
2017-Mar-14 22:33N 45°39' E 013°46'0 0.0
2017-Mar-14 21:33N 45°39' E 013°46'0 0.0
2017-Mar-14 20:30N 45°39' E 013°46'0 0.0
2017-Mar-14 19:33N 45°39' E 013°46'0 0.0
2017-Mar-14 18:33N 45°39' E 013°46'0 0.0
2017-Mar-14 17:33N 45°39' E 013°46'0 0.0
2017-Mar-14 16:27N 45°39' E 013°46'0 0.0
2017-Mar-14 15:09N 45°39' E 013°46'0 0.0
2017-Mar-14 14:33N 45°39' E 013°46'0 0.0
2017-Mar-14 13:33N 45°39' E 013°46'0 0.0
2017-Mar-14 12:33N 45°39' E 013°46'0 0.0
2017-Mar-14 11:33N 45°39' E 013°46'0 0.0
2017-Mar-14 10:33N 45°39' E 013°46'0 0.0
2017-Mar-14 09:33N 45°39' E 013°46'0 0.0
2017-Mar-14 08:12N 45°39' E 013°46'0 0.0
2017-Mar-14 07:33N 45°39' E 013°46'0 0.0
2017-Mar-14 06:33N 45°39' E 013°46'0 0.0
2017-Mar-14 05:24N 45°39' E 013°46'0 0.0
2017-Mar-14 04:33N 45°39' E 013°46'0 0.0
2017-Mar-14 03:33N 45°39' E 013°46'0 0.0
2017-Mar-14 02:30N 45°39' E 013°46'0 0.0
2017-Mar-14 01:33N 45°39' E 013°46'0 0.0
2017-Mar-14 00:33N 45°39' E 013°46'0 0.0
2017-Mar-13 23:33N 45°39' E 013°46'0 0.0
2017-Mar-13 22:24N 45°39' E 013°46'0 0.0
2017-Mar-13 21:24N 45°39' E 013°46'0 0.0
2017-Mar-13 20:33N 45°39' E 013°46'0 0.0
2017-Mar-13 19:33N 45°39' E 013°46'0 0.0
2017-Mar-13 18:24N 45°39' E 013°46'0 0.0
2017-Mar-13 17:33N 45°39' E 013°46'7 6.7
2017-Mar-13 16:33N 45°42' E 013°37'3 0.2
2017-Mar-13 05:33N 45°44' E 013°38'7 7.1
2017-Mar-13 04:33N 45°38' E 013°35'8 7.5
2017-Mar-13 03:33N 45°32' E 013°28'7 6.8
2017-Mar-13 02:33N 45°25' E 013°27'7 6.7
2017-Mar-13 01:33N 45°19' E 013°28'7 7.2
2017-Mar-13 00:33N 45°12' E 013°29'6 6.4
2017-Mar-12 23:33N 45°06' E 013°33'4 3.8
2017-Mar-12 22:33N 45°05' E 013°38'0 0.0
2017-Mar-12 21:33N 45°05' E 013°38'0 0.0
2017-Mar-12 20:33N 45°05' E 013°38'0 0.0
2017-Mar-12 19:33N 45°05' E 013°38'  
Track history (hours):
 
Tides and Currents Weather Stations Pressure Air Temp Water Temp Dewpoint Dewpoint Depression Visibility Wind Speed Wind Dir Waves Ship Positions

Arethusa

Last reported at 2017-Mar-22 19:33 UTC. Time now 2017-Mar-24 06:14 UTC.
Position N 36°14' E 014°11'.

Length 60 m; draft 3 m.

Type: Passenger vessel. MMSI: 249069000.

Date/timePositionNaut miles runAvg speedWind from/ knotsBaromVisibWave heightAir tempDewpointWater temp
2017-Mar-22 19:33N 36°14' E 014°11'1212.3
2017-Mar-22 18:33N 36°06' E 014°22'1111.3
2017-Mar-22 17:33N 35°59' E 014°32'  
2017-Mar-20 08:33N 35°55' E 014°32'7 7.1
2017-Mar-20 07:33N 35°59' E 014°25'0 0.0
2017-Mar-20 06:33N 35°59' E 014°25'0 0.0
2017-Mar-20 05:33N 35°59' E 014°25'0 0.0
2017-Mar-20 04:33N 35°59' E 014°25'0 0.0
2017-Mar-20 03:33N 35°59' E 014°25'0 0.0
2017-Mar-20 02:33N 35°59' E 014°25'0 0.0
2017-Mar-20 01:33N 35°59' E 014°25'0 0.0
2017-Mar-20 00:33N 35°59' E 014°25'0 0.0
2017-Mar-19 23:33N 35°59' E 014°25'0 0.0
2017-Mar-19 22:33N 35°59' E 014°25'0 0.0
2017-Mar-19 21:32N 35°59' E 014°25'0 0.0
2017-Mar-19 20:33N 35°59' E 014°25'0 0.0
2017-Mar-19 19:33N 35°59' E 014°25'9 9.5
2017-Mar-19 18:33N 36°03' E 014°36'1410.4
2017-Mar-19 17:10N 36°12' E 014°50'710.6
2017-Mar-19 16:33N 36°18' E 014°54'1010.3
2017-Mar-19 15:33N 36°27' E 014°60'1010.4
2017-Mar-19 14:33N 36°35' E 015°08'8110.8
2017-Mar-19 07:04N 37°43' E 016°02'150 9.1
2017-Mar-18 14:32N 39°33' E 018°13'38810.2
2017-Mar-17 00:33N 44°43' E 012°58'1111.2
2017-Mar-16 23:33N 44°55' E 012°58'1110.7
2017-Mar-16 22:33N 45°05' E 012°54'1110.9
2017-Mar-16 21:33N 45°13' E 012°45'1110.9
2017-Mar-16 20:34N 45°21' E 012°33'9 9.0
2017-Mar-16 19:33N 45°25' E 012°22'2 2.2
2017-Mar-16 18:31N 45°26' E 012°19'0 0.0
2017-Mar-16 17:31N 45°26' E 012°19'0 0.0
2017-Mar-16 16:31N 45°26' E 012°19'0 0.0
2017-Mar-16 15:31N 45°26' E 012°19'0 0.0
2017-Mar-16 14:31N 45°26' E 012°19'0 0.0
2017-Mar-16 13:31N 45°26' E 012°19'0 0.0
2017-Mar-16 12:31N 45°26' E 012°19'0 0.0
2017-Mar-16 11:31N 45°26' E 012°19'0 0.0
2017-Mar-16 10:31N 45°26' E 012°19'0 0.0
2017-Mar-16 09:31N 45°26' E 012°19'0 0.0
2017-Mar-16 08:33N 45°26' E 012°19'0 0.0
2017-Mar-16 07:33N 45°26' E 012°19'0 0.0
2017-Mar-16 06:33N 45°26' E 012°19'0 0.0
2017-Mar-16 05:33N 45°26' E 012°19'0 0.0
2017-Mar-16 04:33N 45°26' E 012°19'0 0.0
2017-Mar-16 03:33N 45°26' E 012°19'0 0.0
2017-Mar-16 02:33N 45°26' E 012°19'0 0.0
2017-Mar-16 01:33N 45°26' E 012°19'0 0.0
2017-Mar-16 00:33N 45°26' E 012°19'0 0.0
2017-Mar-15 23:33N 45°26' E 012°19'3 2.9
2017-Mar-15 22:34N 45°26' E 012°23'7 7.5
2017-Mar-15 21:33N 45°25' E 012°34'10 9.5
2017-Mar-15 20:32N 45°27' E 012°47'10 9.7
2017-Mar-15 19:33N 45°30' E 013°00'10 9.7
2017-Mar-15 18:33N 45°33' E 013°13'10 9.6
2017-Mar-15 17:33N 45°36' E 013°26'10 9.6
2017-Mar-15 16:33N 45°39' E 013°39'5 3.7
2017-Mar-15 15:18N 45°39' E 013°46'0 0.0
2017-Mar-15 14:33N 45°39' E 013°46'0 0.0
2017-Mar-15 13:30N 45°39' E 013°46'0 0.0
2017-Mar-15 12:21N 45°39' E 013°46'0 0.0
2017-Mar-15 11:33N 45°39' E 013°46'0 0.0
2017-Mar-15 10:33N 45°39' E 013°46'0 0.0
2017-Mar-15 09:27N 45°39' E 013°46'0 0.0
2017-Mar-15 08:33N 45°39' E 013°46'0 0.0
2017-Mar-15 07:33N 45°39' E 013°46'0 0.0
2017-Mar-15 06:33N 45°39' E 013°46'0 0.0
2017-Mar-15 05:33N 45°39' E 013°46'0 0.0
2017-Mar-15 04:33N 45°39' E 013°46'0 0.0
2017-Mar-15 03:30N 45°39' E 013°46'0 0.0
2017-Mar-15 02:33N 45°39' E 013°46'0 0.0
2017-Mar-15 01:33N 45°39' E 013°46'0 0.0
2017-Mar-15 00:33N 45°39' E 013°46'0 0.0
2017-Mar-14 23:33N 45°39' E 013°46'0 0.0
2017-Mar-14 22:33N 45°39' E 013°46'0 0.0
2017-Mar-14 21:33N 45°39' E 013°46'0 0.0
2017-Mar-14 20:30N 45°39' E 013°46'0 0.0
2017-Mar-14 19:33N 45°39' E 013°46'0 0.0
2017-Mar-14 18:33N 45°39' E 013°46'0 0.0
2017-Mar-14 17:33N 45°39' E 013°46'0 0.0
2017-Mar-14 16:27N 45°39' E 013°46'0 0.0
2017-Mar-14 15:09N 45°39' E 013°46'0 0.0
2017-Mar-14 14:33N 45°39' E 013°46'0 0.0
2017-Mar-14 13:33N 45°39' E 013°46'0 0.0
2017-Mar-14 12:33N 45°39' E 013°46'0 0.0
2017-Mar-14 11:33N 45°39' E 013°46'0 0.0
2017-Mar-14 10:33N 45°39' E 013°46'0 0.0
2017-Mar-14 09:33N 45°39' E 013°46'0 0.0
2017-Mar-14 08:12N 45°39' E 013°46'0 0.0
2017-Mar-14 07:33N 45°39' E 013°46'0 0.0
2017-Mar-14 06:33N 45°39' E 013°46'0 0.0
2017-Mar-14 05:24N 45°39' E 013°46'0 0.0
2017-Mar-14 04:33N 45°39' E 013°46'0 0.0
2017-Mar-14 03:33N 45°39' E 013°46'0 0.0
2017-Mar-14 02:30N 45°39' E 013°46'0 0.0
2017-Mar-14 01:33N 45°39' E 013°46'0 0.0
2017-Mar-14 00:33N 45°39' E 013°46'0 0.0
2017-Mar-13 23:33N 45°39' E 013°46'0 0.0
2017-Mar-13 22:24N 45°39' E 013°46'0 0.0
2017-Mar-13 21:24N 45°39' E 013°46'0 0.0
2017-Mar-13 20:33N 45°39' E 013°46'0 0.0
2017-Mar-13 19:33N 45°39' E 013°46'0 0.0
2017-Mar-13 18:24N 45°39' E 013°46'0 0.0
2017-Mar-13 17:33N 45°39' E 013°46'7 6.7
2017-Mar-13 16:33N 45°42' E 013°37'3 0.2
2017-Mar-13 05:33N 45°44' E 013°38'7 7.1
2017-Mar-13 04:33N 45°38' E 013°35'8 7.5
2017-Mar-13 03:33N 45°32' E 013°28'7 6.8
2017-Mar-13 02:33N 45°25' E 013°27'7 6.7
2017-Mar-13 01:33N 45°19' E 013°28'7 7.2
2017-Mar-13 00:33N 45°12' E 013°29'6 6.4
2017-Mar-12 23:33N 45°06' E 013°33'4 3.8
2017-Mar-12 22:33N 45°05' E 013°38'0 0.0
2017-Mar-12 21:33N 45°05' E 013°38'0 0.0
2017-Mar-12 20:33N 45°05' E 013°38'0 0.0
2017-Mar-12 19:33N 45°05' E 013°38'  

Dump ship's entire track history